sensor_id;sensor_type;location;lat;lon;timestamp;P1;durP1;ratioP1;P2;durP2;ratioP2
25715;SDS011;13573;50.936;4.328;2022-09-09T00:01:46;11.17;;;2.80;;
25715;SDS011;13573;50.936;4.328;2022-09-09T00:04:15;9.17;;;2.57;;
25715;SDS011;13573;50.936;4.328;2022-09-09T00:06:43;7.57;;;2.37;;
25715;SDS011;13573;50.936;4.328;2022-09-09T00:09:17;8.73;;;2.70;;
25715;SDS011;13573;50.936;4.328;2022-09-09T00:11:47;6.83;;;2.60;;
25715;SDS011;13573;50.936;4.328;2022-09-09T00:14:51;7.80;;;2.57;;
25715;SDS011;13573;50.936;4.328;2022-09-09T00:17:14;8.73;;;2.33;;
25715;SDS011;13573;50.936;4.328;2022-09-09T00:19:43;5.03;;;2.63;;
25715;SDS011;13573;50.936;4.328;2022-09-09T00:22:16;8.87;;;3.00;;
25715;SDS011;13573;50.936;4.328;2022-09-09T00:24:46;9.00;;;2.60;;
25715;SDS011;13573;50.936;4.328;2022-09-09T00:27:21;10.13;;;2.63;;
25715;SDS011;13573;50.936;4.328;2022-09-09T00:29:57;5.10;;;2.80;;
25715;SDS011;13573;50.936;4.328;2022-09-09T00:32:27;5.73;;;2.30;;
25715;SDS011;13573;50.936;4.328;2022-09-09T00:34:56;8.73;;;2.57;;
25715;SDS011;13573;50.936;4.328;2022-09-09T00:37:28;7.47;;;2.60;;
25715;SDS011;13573;50.936;4.328;2022-09-09T00:39:59;6.93;;;2.53;;
25715;SDS011;13573;50.936;4.328;2022-09-09T00:42:30;8.37;;;2.57;;
25715;SDS011;13573;50.936;4.328;2022-09-09T00:44:58;6.03;;;2.60;;
25715;SDS011;13573;50.936;4.328;2022-09-09T00:47:33;12.03;;;3.70;;
25715;SDS011;13573;50.936;4.328;2022-09-09T00:50:00;6.90;;;2.60;;
25715;SDS011;13573;50.936;4.328;2022-09-09T00:55:10;7.10;;;2.90;;
25715;SDS011;13573;50.936;4.328;2022-09-09T00:57:40;7.00;;;2.60;;
25715;SDS011;13573;50.936;4.328;2022-09-09T01:02:48;5.57;;;2.50;;
25715;SDS011;13573;50.936;4.328;2022-09-09T01:05:37;7.13;;;2.93;;
25715;SDS011;13573;50.936;4.328;2022-09-09T01:08:05;7.97;;;2.30;;
25715;SDS011;13573;50.936;4.328;2022-09-09T01:10:36;8.77;;;2.77;;
25715;SDS011;13573;50.936;4.328;2022-09-09T01:13:00;6.17;;;2.43;;
25715;SDS011;13573;50.936;4.328;2022-09-09T01:15:31;10.67;;;2.93;;
25715;SDS011;13573;50.936;4.328;2022-09-09T01:18:02;6.93;;;2.47;;
25715;SDS011;13573;50.936;4.328;2022-09-09T01:20:38;7.50;;;2.60;;
25715;SDS011;13573;50.936;4.328;2022-09-09T01:26:21;6.83;;;2.73;;
25715;SDS011;13573;50.936;4.328;2022-09-09T01:28:48;5.30;;;2.37;;
25715;SDS011;13573;50.936;4.328;2022-09-09T01:31:21;11.70;;;2.77;;
25715;SDS011;13573;50.936;4.328;2022-09-09T01:33:52;11.77;;;2.20;;
25715;SDS011;13573;50.936;4.328;2022-09-09T01:36:24;9.60;;;2.33;;
25715;SDS011;13573;50.936;4.328;2022-09-09T01:38:52;6.60;;;2.50;;
25715;SDS011;13573;50.936;4.328;2022-09-09T01:41:19;7.27;;;2.40;;
25715;SDS011;13573;50.936;4.328;2022-09-09T01:43:46;7.43;;;2.93;;
25715;SDS011;13573;50.936;4.328;2022-09-09T01:46:13;6.73;;;1.83;;
25715;SDS011;13573;50.936;4.328;2022-09-09T01:48:42;9.03;;;2.70;;
25715;SDS011;13573;50.936;4.328;2022-09-09T01:51:09;6.13;;;2.30;;
25715;SDS011;13573;50.936;4.328;2022-09-09T01:53:37;8.27;;;2.60;;
25715;SDS011;13573;50.936;4.328;2022-09-09T01:56:11;9.70;;;2.50;;
25715;SDS011;13573;50.936;4.328;2022-09-09T02:01:24;7.63;;;2.37;;
25715;SDS011;13573;50.936;4.328;2022-09-09T02:03:53;5.87;;;2.30;;
25715;SDS011;13573;50.936;4.328;2022-09-09T02:06:26;11.57;;;2.60;;
25715;SDS011;13573;50.936;4.328;2022-09-09T02:08:55;11.33;;;2.50;;
25715;SDS011;13573;50.936;4.328;2022-09-09T02:11:24;7.53;;;2.60;;
25715;SDS011;13573;50.936;4.328;2022-09-09T02:13:53;10.60;;;3.30;;
25715;SDS011;13573;50.936;4.328;2022-09-09T02:16:24;13.93;;;3.47;;
25715;SDS011;13573;50.936;4.328;2022-09-09T02:19:02;12.87;;;2.97;;
25715;SDS011;13573;50.936;4.328;2022-09-09T02:21:30;9.47;;;2.80;;
25715;SDS011;13573;50.936;4.328;2022-09-09T02:24:00;14.40;;;3.73;;
25715;SDS011;13573;50.936;4.328;2022-09-09T02:26:31;10.90;;;3.20;;
25715;SDS011;13573;50.936;4.328;2022-09-09T02:28:59;13.63;;;4.00;;
25715;SDS011;13573;50.936;4.328;2022-09-09T02:31:27;10.20;;;3.03;;
25715;SDS011;13573;50.936;4.328;2022-09-09T02:33:55;9.03;;;2.87;;
25715;SDS011;13573;50.936;4.328;2022-09-09T02:36:25;11.70;;;3.17;;
25715;SDS011;13573;50.936;4.328;2022-09-09T02:38:55;11.27;;;3.53;;
25715;SDS011;13573;50.936;4.328;2022-09-09T02:41:24;10.47;;;3.33;;
25715;SDS011;13573;50.936;4.328;2022-09-09T02:43:54;15.23;;;3.63;;
25715;SDS011;13573;50.936;4.328;2022-09-09T02:46:32;9.90;;;3.50;;
25715;SDS011;13573;50.936;4.328;2022-09-09T02:49:03;11.23;;;3.13;;
25715;SDS011;13573;50.936;4.328;2022-09-09T02:54:10;13.93;;;3.77;;
25715;SDS011;13573;50.936;4.328;2022-09-09T02:56:44;10.87;;;3.17;;
25715;SDS011;13573;50.936;4.328;2022-09-09T02:59:16;11.63;;;3.40;;
25715;SDS011;13573;50.936;4.328;2022-09-09T03:01:43;12.10;;;3.47;;
25715;SDS011;13573;50.936;4.328;2022-09-09T03:04:10;8.67;;;3.40;;
25715;SDS011;13573;50.936;4.328;2022-09-09T03:06:37;10.97;;;3.20;;
25715;SDS011;13573;50.936;4.328;2022-09-09T03:09:04;16.37;;;3.23;;
25715;SDS011;13573;50.936;4.328;2022-09-09T03:11:31;10.80;;;3.17;;
25715;SDS011;13573;50.936;4.328;2022-09-09T03:13:57;14.03;;;3.40;;
25715;SDS011;13573;50.936;4.328;2022-09-09T03:16:24;14.83;;;3.60;;
25715;SDS011;13573;50.936;4.328;2022-09-09T03:18:51;11.77;;;3.47;;
25715;SDS011;13573;50.936;4.328;2022-09-09T03:21:17;10.77;;;3.43;;
25715;SDS011;13573;50.936;4.328;2022-09-09T03:23:44;12.23;;;3.80;;
25715;SDS011;13573;50.936;4.328;2022-09-09T03:26:11;14.07;;;3.10;;
25715;SDS011;13573;50.936;4.328;2022-09-09T03:28:40;11.57;;;3.87;;
25715;SDS011;13573;50.936;4.328;2022-09-09T03:31:08;9.80;;;3.20;;
25715;SDS011;13573;50.936;4.328;2022-09-09T03:33:36;17.00;;;3.90;;
25715;SDS011;13573;50.936;4.328;2022-09-09T03:36:04;14.73;;;3.23;;
25715;SDS011;13573;50.936;4.328;2022-09-09T03:38:33;16.60;;;2.90;;
25715;SDS011;13573;50.936;4.328;2022-09-09T03:41:00;14.07;;;3.30;;
25715;SDS011;13573;50.936;4.328;2022-09-09T03:43:28;10.53;;;3.30;;
25715;SDS011;13573;50.936;4.328;2022-09-09T03:45:55;12.27;;;3.80;;
25715;SDS011;13573;50.936;4.328;2022-09-09T03:48:23;11.93;;;3.60;;
25715;SDS011;13573;50.936;4.328;2022-09-09T03:50:51;10.00;;;3.50;;
25715;SDS011;13573;50.936;4.328;2022-09-09T03:53:20;10.13;;;2.83;;
25715;SDS011;13573;50.936;4.328;2022-09-09T03:55:49;13.17;;;3.17;;
25715;SDS011;13573;50.936;4.328;2022-09-09T03:58:18;12.10;;;3.70;;
25715;SDS011;13573;50.936;4.328;2022-09-09T04:03:19;15.60;;;3.63;;
25715;SDS011;13573;50.936;4.328;2022-09-09T04:05:48;14.63;;;3.33;;
25715;SDS011;13573;50.936;4.328;2022-09-09T04:08:15;14.67;;;3.00;;
25715;SDS011;13573;50.936;4.328;2022-09-09T04:10:42;17.57;;;3.73;;
25715;SDS011;13573;50.936;4.328;2022-09-09T04:13:11;17.53;;;4.07;;
25715;SDS011;13573;50.936;4.328;2022-09-09T04:15:38;10.63;;;3.20;;
25715;SDS011;13573;50.936;4.328;2022-09-09T04:18:04;11.67;;;2.80;;
25715;SDS011;13573;50.936;4.328;2022-09-09T04:20:32;14.50;;;2.97;;
25715;SDS011;13573;50.936;4.328;2022-09-09T04:22:58;14.07;;;3.30;;
25715;SDS011;13573;50.936;4.328;2022-09-09T04:25:25;16.83;;;3.33;;
25715;SDS011;13573;50.936;4.328;2022-09-09T04:27:54;16.33;;;4.20;;
25715;SDS011;13573;50.936;4.328;2022-09-09T04:30:22;13.93;;;2.80;;
25715;SDS011;13573;50.936;4.328;2022-09-09T04:32:49;13.23;;;3.57;;
25715;SDS011;13573;50.936;4.328;2022-09-09T04:35:16;14.37;;;3.17;;
25715;SDS011;13573;50.936;4.328;2022-09-09T04:37:44;18.37;;;3.50;;
25715;SDS011;13573;50.936;4.328;2022-09-09T04:40:10;19.40;;;3.07;;
25715;SDS011;13573;50.936;4.328;2022-09-09T04:42:38;11.97;;;3.10;;
25715;SDS011;13573;50.936;4.328;2022-09-09T04:45:05;11.73;;;3.27;;
25715;SDS011;13573;50.936;4.328;2022-09-09T04:47:32;17.97;;;3.90;;
25715;SDS011;13573;50.936;4.328;2022-09-09T04:50:00;10.37;;;2.83;;
25715;SDS011;13573;50.936;4.328;2022-09-09T04:52:26;11.70;;;3.23;;
25715;SDS011;13573;50.936;4.328;2022-09-09T04:54:53;14.40;;;3.70;;
25715;SDS011;13573;50.936;4.328;2022-09-09T04:57:20;15.07;;;3.30;;
25715;SDS011;13573;50.936;4.328;2022-09-09T04:59:47;14.40;;;3.83;;
25715;SDS011;13573;50.936;4.328;2022-09-09T05:02:14;18.47;;;4.10;;
25715;SDS011;13573;50.936;4.328;2022-09-09T05:04:40;15.23;;;3.93;;
25715;SDS011;13573;50.936;4.328;2022-09-09T05:07:07;12.90;;;3.83;;
25715;SDS011;13573;50.936;4.328;2022-09-09T05:09:33;15.13;;;3.73;;
25715;SDS011;13573;50.936;4.328;2022-09-09T05:12:00;18.43;;;4.23;;
25715;SDS011;13573;50.936;4.328;2022-09-09T05:14:28;11.90;;;4.33;;
25715;SDS011;13573;50.936;4.328;2022-09-09T05:16:56;10.87;;;2.70;;
25715;SDS011;13573;50.936;4.328;2022-09-09T05:19:23;11.00;;;3.03;;
25715;SDS011;13573;50.936;4.328;2022-09-09T05:21:50;10.47;;;2.83;;
25715;SDS011;13573;50.936;4.328;2022-09-09T05:24:17;11.37;;;3.03;;
25715;SDS011;13573;50.936;4.328;2022-09-09T05:26:44;10.53;;;3.10;;
25715;SDS011;13573;50.936;4.328;2022-09-09T05:29:11;8.60;;;2.33;;
25715;SDS011;13573;50.936;4.328;2022-09-09T05:31:37;13.13;;;2.90;;
25715;SDS011;13573;50.936;4.328;2022-09-09T05:34:04;13.50;;;2.77;;
25715;SDS011;13573;50.936;4.328;2022-09-09T05:36:31;10.97;;;3.13;;
25715;SDS011;13573;50.936;4.328;2022-09-09T05:38:58;13.43;;;3.33;;
25715;SDS011;13573;50.936;4.328;2022-09-09T05:41:24;13.00;;;2.63;;
25715;SDS011;13573;50.936;4.328;2022-09-09T05:43:51;8.37;;;2.70;;
25715;SDS011;13573;50.936;4.328;2022-09-09T05:46:19;14.87;;;2.77;;
25715;SDS011;13573;50.936;4.328;2022-09-09T05:48:47;20.23;;;4.63;;
25715;SDS011;13573;50.936;4.328;2022-09-09T05:51:18;15.00;;;3.77;;
25715;SDS011;13573;50.936;4.328;2022-09-09T05:53:47;11.60;;;2.60;;
25715;SDS011;13573;50.936;4.328;2022-09-09T05:56:18;11.27;;;3.13;;
25715;SDS011;13573;50.936;4.328;2022-09-09T05:58:45;13.63;;;2.33;;
25715;SDS011;13573;50.936;4.328;2022-09-09T06:01:15;15.87;;;3.60;;
25715;SDS011;13573;50.936;4.328;2022-09-09T06:03:42;9.90;;;3.17;;
25715;SDS011;13573;50.936;4.328;2022-09-09T06:06:11;8.53;;;2.57;;
25715;SDS011;13573;50.936;4.328;2022-09-09T06:08:39;12.07;;;3.00;;
25715;SDS011;13573;50.936;4.328;2022-09-09T06:11:08;9.83;;;3.17;;
25715;SDS011;13573;50.936;4.328;2022-09-09T06:13:35;10.13;;;2.70;;
25715;SDS011;13573;50.936;4.328;2022-09-09T06:16:04;13.00;;;3.20;;
25715;SDS011;13573;50.936;4.328;2022-09-09T06:18:31;16.10;;;3.07;;
25715;SDS011;13573;50.936;4.328;2022-09-09T06:20:58;11.43;;;2.63;;
25715;SDS011;13573;50.936;4.328;2022-09-09T06:23:26;10.00;;;2.30;;
25715;SDS011;13573;50.936;4.328;2022-09-09T06:26:09;14.67;;;2.77;;
25715;SDS011;13573;50.936;4.328;2022-09-09T06:28:36;8.33;;;2.17;;
25715;SDS011;13573;50.936;4.328;2022-09-09T06:31:04;12.07;;;2.80;;
25715;SDS011;13573;50.936;4.328;2022-09-09T06:33:32;17.03;;;3.90;;
25715;SDS011;13573;50.936;4.328;2022-09-09T06:36:01;7.53;;;2.40;;
25715;SDS011;13573;50.936;4.328;2022-09-09T06:38:29;16.43;;;3.23;;
25715;SDS011;13573;50.936;4.328;2022-09-09T06:40:57;7.83;;;2.33;;
25715;SDS011;13573;50.936;4.328;2022-09-09T06:43:24;11.93;;;2.60;;
25715;SDS011;13573;50.936;4.328;2022-09-09T06:45:53;8.67;;;2.37;;
25715;SDS011;13573;50.936;4.328;2022-09-09T06:48:21;10.57;;;2.40;;
25715;SDS011;13573;50.936;4.328;2022-09-09T06:50:48;12.63;;;2.23;;
25715;SDS011;13573;50.936;4.328;2022-09-09T06:53:16;11.70;;;2.47;;
25715;SDS011;13573;50.936;4.328;2022-09-09T06:55:45;9.17;;;2.40;;
25715;SDS011;13573;50.936;4.328;2022-09-09T06:58:11;17.57;;;2.33;;
25715;SDS011;13573;50.936;4.328;2022-09-09T07:00:38;11.03;;;2.40;;
25715;SDS011;13573;50.936;4.328;2022-09-09T07:03:05;17.00;;;3.30;;
25715;SDS011;13573;50.936;4.328;2022-09-09T07:05:31;15.20;;;2.97;;
25715;SDS011;13573;50.936;4.328;2022-09-09T07:07:59;8.93;;;2.00;;
25715;SDS011;13573;50.936;4.328;2022-09-09T07:10:25;8.23;;;2.07;;
25715;SDS011;13573;50.936;4.328;2022-09-09T07:12:52;8.37;;;2.10;;
25715;SDS011;13573;50.936;4.328;2022-09-09T07:15:19;13.13;;;2.60;;
25715;SDS011;13573;50.936;4.328;2022-09-09T07:17:45;9.83;;;2.10;;
25715;SDS011;13573;50.936;4.328;2022-09-09T07:20:12;11.20;;;2.40;;
25715;SDS011;13573;50.936;4.328;2022-09-09T07:22:41;10.23;;;2.30;;
25715;SDS011;13573;50.936;4.328;2022-09-09T07:25:08;13.97;;;3.00;;
25715;SDS011;13573;50.936;4.328;2022-09-09T07:27:34;15.90;;;2.70;;
25715;SDS011;13573;50.936;4.328;2022-09-09T07:30:01;14.17;;;2.20;;
25715;SDS011;13573;50.936;4.328;2022-09-09T07:32:28;10.67;;;2.30;;
25715;SDS011;13573;50.936;4.328;2022-09-09T07:34:56;10.17;;;2.40;;
25715;SDS011;13573;50.936;4.328;2022-09-09T07:37:24;10.70;;;2.43;;
25715;SDS011;13573;50.936;4.328;2022-09-09T07:39:51;8.00;;;2.40;;
25715;SDS011;13573;50.936;4.328;2022-09-09T07:42:18;12.80;;;3.10;;
25715;SDS011;13573;50.936;4.328;2022-09-09T07:44:45;11.60;;;2.67;;
25715;SDS011;13573;50.936;4.328;2022-09-09T07:47:12;13.47;;;3.23;;
25715;SDS011;13573;50.936;4.328;2022-09-09T07:49:38;5.83;;;2.20;;
25715;SDS011;13573;50.936;4.328;2022-09-09T07:52:05;10.77;;;2.63;;
25715;SDS011;13573;50.936;4.328;2022-09-09T07:54:32;9.03;;;2.63;;
25715;SDS011;13573;50.936;4.328;2022-09-09T07:56:58;8.00;;;2.43;;
25715;SDS011;13573;50.936;4.328;2022-09-09T07:59:25;10.63;;;2.37;;
25715;SDS011;13573;50.936;4.328;2022-09-09T08:01:53;13.13;;;2.97;;
25715;SDS011;13573;50.936;4.328;2022-09-09T08:04:20;8.73;;;2.53;;
25715;SDS011;13573;50.936;4.328;2022-09-09T08:06:49;11.23;;;2.80;;
25715;SDS011;13573;50.936;4.328;2022-09-09T08:09:20;16.40;;;3.30;;
25715;SDS011;13573;50.936;4.328;2022-09-09T08:11:50;12.93;;;2.77;;
25715;SDS011;13573;50.936;4.328;2022-09-09T08:14:18;14.83;;;3.40;;
25715;SDS011;13573;50.936;4.328;2022-09-09T08:16:46;11.23;;;3.13;;
25715;SDS011;13573;50.936;4.328;2022-09-09T08:19:13;8.57;;;2.50;;
25715;SDS011;13573;50.936;4.328;2022-09-09T08:21:41;11.03;;;2.87;;
25715;SDS011;13573;50.936;4.328;2022-09-09T08:24:09;12.27;;;3.07;;
25715;SDS011;13573;50.936;4.328;2022-09-09T08:26:37;14.63;;;3.00;;
25715;SDS011;13573;50.936;4.328;2022-09-09T08:29:07;9.30;;;2.30;;
25715;SDS011;13573;50.936;4.328;2022-09-09T08:31:37;10.90;;;2.90;;
25715;SDS011;13573;50.936;4.328;2022-09-09T08:34:05;8.87;;;3.03;;
25715;SDS011;13573;50.936;4.328;2022-09-09T08:36:33;17.67;;;3.07;;
25715;SDS011;13573;50.936;4.328;2022-09-09T08:39:00;10.83;;;3.43;;
25715;SDS011;13573;50.936;4.328;2022-09-09T08:42:04;10.87;;;3.13;;
25715;SDS011;13573;50.936;4.328;2022-09-09T08:46:46;11.60;;;3.20;;
25715;SDS011;13573;50.936;4.328;2022-09-09T08:49:18;11.37;;;3.10;;
25715;SDS011;13573;50.936;4.328;2022-09-09T08:51:43;12.80;;;3.17;;
25715;SDS011;13573;50.936;4.328;2022-09-09T08:54:10;14.77;;;3.47;;
25715;SDS011;13573;50.936;4.328;2022-09-09T08:56:37;10.50;;;2.70;;
25715;SDS011;13573;50.936;4.328;2022-09-09T08:59:03;14.67;;;3.43;;
25715;SDS011;13573;50.936;4.328;2022-09-09T09:01:35;10.13;;;3.07;;
25715;SDS011;13573;50.936;4.328;2022-09-09T09:04:22;13.43;;;3.10;;
25715;SDS011;13573;50.936;4.328;2022-09-09T09:06:57;10.50;;;2.87;;
25715;SDS011;13573;50.936;4.328;2022-09-09T09:09:29;11.00;;;2.93;;
25715;SDS011;13573;50.936;4.328;2022-09-09T09:12:17;11.13;;;3.40;;
25715;SDS011;13573;50.936;4.328;2022-09-09T09:14:45;12.70;;;3.20;;
25715;SDS011;13573;50.936;4.328;2022-09-09T09:17:14;11.17;;;3.23;;
25715;SDS011;13573;50.936;4.328;2022-09-09T09:19:41;12.10;;;3.30;;
25715;SDS011;13573;50.936;4.328;2022-09-09T09:24:44;16.43;;;3.37;;
25715;SDS011;13573;50.936;4.328;2022-09-09T09:27:12;14.10;;;3.40;;
25715;SDS011;13573;50.936;4.328;2022-09-09T09:29:40;10.07;;;2.70;;
25715;SDS011;13573;50.936;4.328;2022-09-09T09:32:10;13.10;;;3.17;;
25715;SDS011;13573;50.936;4.328;2022-09-09T09:34:38;8.50;;;2.77;;
25715;SDS011;13573;50.936;4.328;2022-09-09T09:37:12;7.63;;;3.00;;
25715;SDS011;13573;50.936;4.328;2022-09-09T09:39:36;13.53;;;2.87;;
25715;SDS011;13573;50.936;4.328;2022-09-09T09:42:09;11.33;;;2.73;;
25715;SDS011;13573;50.936;4.328;2022-09-09T09:44:39;11.10;;;2.97;;
25715;SDS011;13573;50.936;4.328;2022-09-09T09:47:08;11.47;;;3.10;;
25715;SDS011;13573;50.936;4.328;2022-09-09T09:49:40;15.13;;;2.73;;
25715;SDS011;13573;50.936;4.328;2022-09-09T09:52:12;12.37;;;3.10;;
25715;SDS011;13573;50.936;4.328;2022-09-09T09:54:43;9.13;;;3.00;;
25715;SDS011;13573;50.936;4.328;2022-09-09T09:57:10;8.30;;;2.70;;
25715;SDS011;13573;50.936;4.328;2022-09-09T09:59:41;10.53;;;2.70;;
25715;SDS011;13573;50.936;4.328;2022-09-09T10:02:17;12.90;;;2.63;;
25715;SDS011;13573;50.936;4.328;2022-09-09T10:05:00;15.37;;;2.30;;
25715;SDS011;13573;50.936;4.328;2022-09-09T10:07:19;9.43;;;3.00;;
25715;SDS011;13573;50.936;4.328;2022-09-09T10:09:51;11.43;;;2.80;;
25715;SDS011;13573;50.936;4.328;2022-09-09T10:12:23;10.80;;;2.73;;
25715;SDS011;13573;50.936;4.328;2022-09-09T10:14:56;9.50;;;2.23;;
25715;SDS011;13573;50.936;4.328;2022-09-09T10:17:25;7.63;;;2.27;;
25715;SDS011;13573;50.936;4.328;2022-09-09T10:20:16;9.77;;;2.27;;
25715;SDS011;13573;50.936;4.328;2022-09-09T10:22:47;8.93;;;2.00;;
25715;SDS011;13573;50.936;4.328;2022-09-09T10:25:17;9.13;;;2.07;;
25715;SDS011;13573;50.936;4.328;2022-09-09T10:28:03;6.27;;;1.97;;
25715;SDS011;13573;50.936;4.328;2022-09-09T10:30:54;9.10;;;2.27;;
25715;SDS011;13573;50.936;4.328;2022-09-09T10:33:29;8.47;;;2.20;;
25715;SDS011;13573;50.936;4.328;2022-09-09T10:36:01;8.27;;;1.83;;
25715;SDS011;13573;50.936;4.328;2022-09-09T10:38:32;9.77;;;2.43;;
25715;SDS011;13573;50.936;4.328;2022-09-09T10:41:00;6.63;;;1.80;;
25715;SDS011;13573;50.936;4.328;2022-09-09T10:46:20;12.17;;;2.33;;
25715;SDS011;13573;50.936;4.328;2022-09-09T10:48:53;6.93;;;1.97;;
25715;SDS011;13573;50.936;4.328;2022-09-09T10:51:27;5.63;;;1.90;;
25715;SDS011;13573;50.936;4.328;2022-09-09T10:53:56;5.37;;;1.83;;
25715;SDS011;13573;50.936;4.328;2022-09-09T10:56:21;12.17;;;2.00;;
25715;SDS011;13573;50.936;4.328;2022-09-09T10:58:56;6.63;;;1.87;;
25715;SDS011;13573;50.936;4.328;2022-09-09T11:01:24;8.93;;;2.10;;
25715;SDS011;13573;50.936;4.328;2022-09-09T11:03:53;9.73;;;2.57;;
25715;SDS011;13573;50.936;4.328;2022-09-09T11:06:22;9.83;;;2.10;;
25715;SDS011;13573;50.936;4.328;2022-09-09T11:08:50;7.90;;;1.80;;
25715;SDS011;13573;50.936;4.328;2022-09-09T11:11:29;9.47;;;1.90;;
25715;SDS011;13573;50.936;4.328;2022-09-09T11:14:05;10.03;;;2.03;;
25715;SDS011;13573;50.936;4.328;2022-09-09T11:21:45;9.67;;;2.00;;
25715;SDS011;13573;50.936;4.328;2022-09-09T11:24:16;8.93;;;1.97;;
25715;SDS011;13573;50.936;4.328;2022-09-09T11:26:45;9.03;;;1.97;;
25715;SDS011;13573;50.936;4.328;2022-09-09T11:29:44;7.17;;;1.47;;
25715;SDS011;13573;50.936;4.328;2022-09-09T11:31:58;7.63;;;1.60;;
25715;SDS011;13573;50.936;4.328;2022-09-09T11:34:27;6.73;;;1.37;;
25715;SDS011;13573;50.936;4.328;2022-09-09T11:37:06;6.50;;;1.47;;
25715;SDS011;13573;50.936;4.328;2022-09-09T11:39:38;5.20;;;1.40;;
25715;SDS011;13573;50.936;4.328;2022-09-09T11:42:20;7.90;;;1.47;;
25715;SDS011;13573;50.936;4.328;2022-09-09T11:44:47;8.87;;;1.67;;
25715;SDS011;13573;50.936;4.328;2022-09-09T11:47:20;4.80;;;1.63;;
25715;SDS011;13573;50.936;4.328;2022-09-09T11:49:47;8.57;;;2.03;;
25715;SDS011;13573;50.936;4.328;2022-09-09T11:54:47;6.80;;;1.93;;
25715;SDS011;13573;50.936;4.328;2022-09-09T11:57:22;6.90;;;1.73;;
25715;SDS011;13573;50.936;4.328;2022-09-09T11:59:50;8.57;;;1.67;;
25715;SDS011;13573;50.936;4.328;2022-09-09T12:02:21;5.40;;;1.70;;
25715;SDS011;13573;50.936;4.328;2022-09-09T12:07:32;10.93;;;1.63;;
25715;SDS011;13573;50.936;4.328;2022-09-09T12:10:04;5.43;;;1.50;;
25715;SDS011;13573;50.936;4.328;2022-09-09T12:12:34;5.27;;;1.63;;
25715;SDS011;13573;50.936;4.328;2022-09-09T12:15:16;8.53;;;1.90;;
25715;SDS011;13573;50.936;4.328;2022-09-09T12:17:31;5.60;;;2.00;;
25715;SDS011;13573;50.936;4.328;2022-09-09T12:20:01;6.83;;;2.03;;
25715;SDS011;13573;50.936;4.328;2022-09-09T12:22:35;11.03;;;1.90;;
25715;SDS011;13573;50.936;4.328;2022-09-09T12:25:06;8.00;;;1.93;;
25715;SDS011;13573;50.936;4.328;2022-09-09T12:27:31;9.93;;;2.20;;
25715;SDS011;13573;50.936;4.328;2022-09-09T12:30:04;7.13;;;1.83;;
25715;SDS011;13573;50.936;4.328;2022-09-09T12:32:32;5.20;;;2.07;;
25715;SDS011;13573;50.936;4.328;2022-09-09T12:34:59;6.43;;;1.50;;
25715;SDS011;13573;50.936;4.328;2022-09-09T12:40:02;7.50;;;1.53;;
25715;SDS011;13573;50.936;4.328;2022-09-09T12:42:29;13.90;;;2.70;;
25715;SDS011;13573;50.936;4.328;2022-09-09T12:45:00;5.33;;;1.50;;
25715;SDS011;13573;50.936;4.328;2022-09-09T12:47:33;6.70;;;2.00;;
25715;SDS011;13573;50.936;4.328;2022-09-09T12:49:59;4.40;;;1.30;;
25715;SDS011;13573;50.936;4.328;2022-09-09T12:52:27;4.37;;;1.43;;
25715;SDS011;13573;50.936;4.328;2022-09-09T12:54:58;2.33;;;1.23;;
25715;SDS011;13573;50.936;4.328;2022-09-09T12:57:29;4.87;;;1.77;;
25715;SDS011;13573;50.936;4.328;2022-09-09T13:00:04;4.20;;;1.27;;
25715;SDS011;13573;50.936;4.328;2022-09-09T13:02:26;3.20;;;1.33;;
25715;SDS011;13573;50.936;4.328;2022-09-09T13:04:54;6.17;;;1.73;;
25715;SDS011;13573;50.936;4.328;2022-09-09T13:07:22;7.17;;;2.30;;
25715;SDS011;13573;50.936;4.328;2022-09-09T13:09:51;3.53;;;1.40;;
25715;SDS011;13573;50.936;4.328;2022-09-09T13:12:19;5.33;;;1.30;;
25715;SDS011;13573;50.936;4.328;2022-09-09T13:14:48;4.93;;;1.13;;
25715;SDS011;13573;50.936;4.328;2022-09-09T13:17:20;7.00;;;1.53;;
25715;SDS011;13573;50.936;4.328;2022-09-09T13:19:48;5.50;;;1.80;;
25715;SDS011;13573;50.936;4.328;2022-09-09T13:22:22;5.97;;;1.47;;
25715;SDS011;13573;50.936;4.328;2022-09-09T13:24:58;7.10;;;1.50;;
25715;SDS011;13573;50.936;4.328;2022-09-09T13:27:27;8.30;;;1.73;;
25715;SDS011;13573;50.936;4.328;2022-09-09T13:29:54;7.60;;;1.50;;
25715;SDS011;13573;50.936;4.328;2022-09-09T13:32:22;7.70;;;1.90;;
25715;SDS011;13573;50.936;4.328;2022-09-09T13:34:53;4.93;;;1.47;;
25715;SDS011;13573;50.936;4.328;2022-09-09T13:37:23;4.13;;;1.40;;
25715;SDS011;13573;50.936;4.328;2022-09-09T13:39:57;7.23;;;1.60;;
25715;SDS011;13573;50.936;4.328;2022-09-09T13:42:27;6.80;;;1.30;;
25715;SDS011;13573;50.936;4.328;2022-09-09T13:44:55;4.77;;;1.50;;
25715;SDS011;13573;50.936;4.328;2022-09-09T13:47:28;11.33;;;1.83;;
25715;SDS011;13573;50.936;4.328;2022-09-09T13:49:57;3.63;;;1.30;;
25715;SDS011;13573;50.936;4.328;2022-09-09T13:52:23;5.47;;;1.90;;
25715;SDS011;13573;50.936;4.328;2022-09-09T13:54:52;3.03;;;1.30;;
25715;SDS011;13573;50.936;4.328;2022-09-09T13:57:21;5.77;;;1.20;;
25715;SDS011;13573;50.936;4.328;2022-09-09T13:59:49;4.47;;;1.53;;
25715;SDS011;13573;50.936;4.328;2022-09-09T14:02:17;3.77;;;1.30;;
25715;SDS011;13573;50.936;4.328;2022-09-09T14:04:47;6.13;;;1.30;;
25715;SDS011;13573;50.936;4.328;2022-09-09T14:07:17;2.50;;;1.20;;
25715;SDS011;13573;50.936;4.328;2022-09-09T14:09:44;6.00;;;1.33;;
25715;SDS011;13573;50.936;4.328;2022-09-09T14:12:13;4.47;;;1.47;;
25715;SDS011;13573;50.936;4.328;2022-09-09T14:14:42;7.83;;;2.47;;
25715;SDS011;13573;50.936;4.328;2022-09-09T14:17:10;4.00;;;1.20;;
25715;SDS011;13573;50.936;4.328;2022-09-09T14:19:39;1.63;;;1.00;;
25715;SDS011;13573;50.936;4.328;2022-09-09T14:22:08;11.43;;;1.90;;
25715;SDS011;13573;50.936;4.328;2022-09-09T14:24:34;4.47;;;1.20;;
25715;SDS011;13573;50.936;4.328;2022-09-09T14:27:02;9.00;;;1.50;;
25715;SDS011;13573;50.936;4.328;2022-09-09T14:29:28;8.27;;;2.17;;
25715;SDS011;13573;50.936;4.328;2022-09-09T14:31:55;5.60;;;1.80;;
25715;SDS011;13573;50.936;4.328;2022-09-09T14:34:22;6.37;;;1.57;;
25715;SDS011;13573;50.936;4.328;2022-09-09T14:36:48;7.80;;;1.80;;
25715;SDS011;13573;50.936;4.328;2022-09-09T14:39:17;6.37;;;2.03;;
25715;SDS011;13573;50.936;4.328;2022-09-09T14:41:43;4.33;;;1.60;;
25715;SDS011;13573;50.936;4.328;2022-09-09T14:44:11;5.97;;;1.80;;
25715;SDS011;13573;50.936;4.328;2022-09-09T14:46:37;4.70;;;2.07;;
25715;SDS011;13573;50.936;4.328;2022-09-09T14:49:04;6.70;;;2.23;;
25715;SDS011;13573;50.936;4.328;2022-09-09T14:51:30;6.07;;;2.07;;
25715;SDS011;13573;50.936;4.328;2022-09-09T14:53:58;7.60;;;2.30;;
25715;SDS011;13573;50.936;4.328;2022-09-09T14:56:26;4.90;;;1.60;;
25715;SDS011;13573;50.936;4.328;2022-09-09T14:58:56;6.50;;;1.60;;
25715;SDS011;13573;50.936;4.328;2022-09-09T15:01:23;3.57;;;1.40;;
25715;SDS011;13573;50.936;4.328;2022-09-09T15:03:53;8.90;;;1.93;;
25715;SDS011;13573;50.936;4.328;2022-09-09T15:06:23;7.63;;;1.60;;
25715;SDS011;13573;50.936;4.328;2022-09-09T15:08:51;6.33;;;1.50;;
25715;SDS011;13573;50.936;4.328;2022-09-09T15:11:19;5.50;;;1.30;;
25715;SDS011;13573;50.936;4.328;2022-09-09T15:13:50;5.50;;;1.47;;
25715;SDS011;13573;50.936;4.328;2022-09-09T15:16:18;4.07;;;1.00;;
25715;SDS011;13573;50.936;4.328;2022-09-09T15:18:50;3.83;;;1.30;;
25715;SDS011;13573;50.936;4.328;2022-09-09T15:21:19;7.53;;;1.40;;
25715;SDS011;13573;50.936;4.328;2022-09-09T15:23:47;4.47;;;1.63;;
25715;SDS011;13573;50.936;4.328;2022-09-09T15:26:14;4.27;;;1.70;;
25715;SDS011;13573;50.936;4.328;2022-09-09T15:28:43;5.47;;;1.70;;
25715;SDS011;13573;50.936;4.328;2022-09-09T15:31:11;4.53;;;1.60;;